createdAt,value
2023-10-21T00:02:01.019Z,6.79
2023-10-21T00:04:28.294Z,6.72
2023-10-21T00:06:55.690Z,6.55
2023-10-21T00:09:24.360Z,6.68
2023-10-21T00:11:51.772Z,6.75
2023-10-21T00:14:19.056Z,6.82
2023-10-21T00:16:46.403Z,6.84
2023-10-21T00:19:13.771Z,6.76
2023-10-21T00:21:41.049Z,6.85
2023-10-21T00:24:08.914Z,6.72
2023-10-21T00:26:45.955Z,6.87
2023-10-21T00:29:13.283Z,6.77
2023-10-21T00:31:40.526Z,6.82
2023-10-21T00:34:07.950Z,6.86
2023-10-21T00:36:35.196Z,6.81
2023-10-21T00:39:02.503Z,7.01
2023-10-21T00:41:30.084Z,6.98
2023-10-21T00:43:58.725Z,6.80
2023-10-21T00:46:26.053Z,6.89
2023-10-21T00:48:53.558Z,7.01
2023-10-21T00:51:21.352Z,6.91
2023-10-21T00:53:50.075Z,6.90
2023-10-21T00:56:17.485Z,7.08
2023-10-21T00:58:44.763Z,6.98
2023-10-21T01:01:13.395Z,7.22
2023-10-21T01:03:41.119Z,7.10
2023-10-21T01:06:08.526Z,6.87
2023-10-21T01:08:42.004Z,6.92
2023-10-21T01:11:09.428Z,6.85
2023-10-21T01:13:36.688Z,6.96
2023-10-21T01:16:04.337Z,6.94
2023-10-21T01:18:34.410Z,6.89
2023-10-21T01:21:01.779Z,6.86
2023-10-21T01:23:30.588Z,6.84
2023-10-21T01:25:57.822Z,7.00
2023-10-21T01:28:25.164Z,7.01
2023-10-21T01:30:52.489Z,6.89
2023-10-21T01:33:19.963Z,7.01
2023-10-21T01:35:47.443Z,7.17
2023-10-21T01:38:14.876Z,7.14
2023-10-21T01:40:44.183Z,7.08
2023-10-21T01:43:11.498Z,6.96
2023-10-21T01:45:39.504Z,6.87
2023-10-21T01:48:07.977Z,6.85
2023-10-21T01:50:35.541Z,7.01
2023-10-21T01:53:03.021Z,7.09
2023-10-21T01:55:30.291Z,6.98
2023-10-21T01:57:58.983Z,6.96
2023-10-21T02:00:26.321Z,7.04
2023-10-21T02:02:55.119Z,7.10
2023-10-21T02:05:23.913Z,7.18
2023-10-21T02:07:51.614Z,7.13
2023-10-21T02:10:19.182Z,7.05
2023-10-21T02:12:46.524Z,7.04
2023-10-21T02:15:15.230Z,6.92
2023-10-21T02:17:42.647Z,7.12
2023-10-21T02:20:11.756Z,7.03
2023-10-21T02:22:39.088Z,6.95
2023-10-21T02:25:13.836Z,7.03
2023-10-21T02:27:42.480Z,7.18
2023-10-21T02:30:11.942Z,7.28
2023-10-21T02:32:43.501Z,7.28
2023-10-21T02:35:11.058Z,7.35
2023-10-21T02:37:38.371Z,7.20
2023-10-21T02:40:07.096Z,7.25
2023-10-21T02:42:34.362Z,7.16
2023-10-21T02:45:01.779Z,7.20
2023-10-21T02:47:29.118Z,7.11
2023-10-21T02:49:57.902Z,7.12
2023-10-21T02:52:25.234Z,7.20
2023-10-21T02:54:52.628Z,7.03
2023-10-21T02:57:20.167Z,7.06
2023-10-21T02:59:47.509Z,7.09
2023-10-21T03:02:14.863Z,7.15
2023-10-21T03:04:42.197Z,7.19
2023-10-21T03:07:10.829Z,7.21
2023-10-21T03:09:38.310Z,7.18
2023-10-21T03:12:06.220Z,7.38
2023-10-21T03:14:33.545Z,7.17
2023-10-21T03:17:00.805Z,7.17
2023-10-21T03:19:28.275Z,7.25
2023-10-21T03:21:55.530Z,7.29
2023-10-21T03:24:24.242Z,7.29
2023-10-21T03:26:51.584Z,7.43
2023-10-21T03:29:18.833Z,7.26
2023-10-21T03:31:46.251Z,7.14
2023-10-21T03:34:13.545Z,7.21
2023-10-21T03:36:40.916Z,7.08
2023-10-21T03:39:08.260Z,7.24
2023-10-21T03:41:36.909Z,7.20
2023-10-21T03:44:04.520Z,7.44
2023-10-21T03:46:31.932Z,7.25
2023-10-21T03:48:59.266Z,7.14
2023-10-21T03:51:26.633Z,7.09
2023-10-21T03:53:54.064Z,7.15
2023-10-21T03:56:21.356Z,7.13
2023-10-21T03:58:50.044Z,7.19
2023-10-21T04:01:33.184Z,7.25
2023-10-21T04:04:00.520Z,7.24
2023-10-21T04:06:27.864Z,7.24
2023-10-21T04:08:55.174Z,7.28
2023-10-21T04:11:22.513Z,7.32
2023-10-21T04:13:51.061Z,7.30
2023-10-21T04:16:18.441Z,7.25
2023-10-21T04:18:45.737Z,7.38
2023-10-21T04:21:13.027Z,7.33
2023-10-21T04:23:40.326Z,7.35
2023-10-21T04:26:07.647Z,7.22
2023-10-21T04:28:34.978Z,7.08
2023-10-21T04:31:03.817Z,7.18
2023-10-21T04:33:31.290Z,7.30
2023-10-21T04:35:58.647Z,7.30
2023-10-21T04:38:25.985Z,7.28
2023-10-21T04:40:53.311Z,7.31
2023-10-21T04:43:20.554Z,7.13
2023-10-21T04:45:47.838Z,7.28
2023-10-21T04:48:16.568Z,7.20
2023-10-21T04:50:43.899Z,7.23
2023-10-21T04:53:11.158Z,7.25
2023-10-21T04:55:38.381Z,7.24
2023-10-21T04:58:05.630Z,7.28
2023-10-21T05:00:33.003Z,7.22
2023-10-21T05:03:00.431Z,7.33
2023-10-21T05:05:29.184Z,7.28
2023-10-21T05:07:56.488Z,7.23
2023-10-21T05:10:23.743Z,7.18
2023-10-21T05:12:51.025Z,7.23
2023-10-21T05:15:18.387Z,7.36
2023-10-21T05:17:45.761Z,7.30
2023-10-21T05:20:13.258Z,7.30
2023-10-21T05:22:41.932Z,7.23
2023-10-21T05:25:09.741Z,7.25
2023-10-21T05:27:37.088Z,7.32
2023-10-21T05:30:05.392Z,7.18
2023-10-21T05:32:32.516Z,7.29
2023-10-21T05:34:59.726Z,7.27
2023-10-21T05:37:27.004Z,7.31
2023-10-21T05:39:55.839Z,7.42
2023-10-21T05:42:23.293Z,7.37
2023-10-21T05:44:50.831Z,7.38
2023-10-21T05:47:18.222Z,7.51
2023-10-21T05:49:45.481Z,7.43
2023-10-21T05:52:12.819Z,7.43
2023-10-21T05:54:40.049Z,7.37
2023-10-21T05:57:08.677Z,7.41
2023-10-21T05:59:36.087Z,7.36
2023-10-21T06:02:03.593Z,7.34
2023-10-21T06:04:30.922Z,7.33
2023-10-21T06:06:58.241Z,7.31
2023-10-21T06:09:27.211Z,7.18
2023-10-21T06:11:54.557Z,7.26
2023-10-21T06:14:23.435Z,7.25
2023-10-21T06:16:50.707Z,7.39
2023-10-21T06:19:18.258Z,7.41
2023-10-21T06:21:45.496Z,7.40
2023-10-21T06:24:12.817Z,7.38
2023-10-21T06:26:40.106Z,7.35
2023-10-21T06:29:07.378Z,7.40
2023-10-21T06:31:35.972Z,7.38
2023-10-21T06:34:03.257Z,7.52
2023-10-21T06:36:30.517Z,7.52
2023-10-21T06:38:57.890Z,7.71
2023-10-21T06:41:25.121Z,7.53
2023-10-21T06:43:52.376Z,7.52
2023-10-21T06:46:19.933Z,7.55
2023-10-21T06:48:48.621Z,7.49
2023-10-21T06:51:16.100Z,7.44
2023-10-21T06:53:43.429Z,7.53
2023-10-21T06:56:11.475Z,7.64
2023-10-21T06:58:38.817Z,7.67
2023-10-21T07:01:06.400Z,7.70
2023-10-21T07:03:33.748Z,7.69
2023-10-21T07:06:02.439Z,7.75
2023-10-21T07:08:29.683Z,7.73
2023-10-21T07:10:56.907Z,7.82
2023-10-21T07:13:24.184Z,7.85
2023-10-21T07:15:51.434Z,7.84
2023-10-21T07:18:19.065Z,7.83
2023-10-21T07:20:46.435Z,7.97
2023-10-21T07:23:15.111Z,8.11
2023-10-21T07:25:43.015Z,8.20
2023-10-21T07:28:10.345Z,8.28
2023-10-21T07:30:37.709Z,8.40
2023-10-21T07:33:05.218Z,8.63
2023-10-21T07:35:32.512Z,8.62
2023-10-21T07:37:59.721Z,8.68
2023-10-21T07:40:29.613Z,8.48
2023-10-21T07:42:56.921Z,8.66
2023-10-21T07:45:24.483Z,8.66
2023-10-21T07:47:51.749Z,8.66
2023-10-21T07:50:19.347Z,8.73
2023-10-21T07:52:46.745Z,8.72
2023-10-21T07:55:13.984Z,8.77
2023-10-21T07:57:42.597Z,8.75
2023-10-21T08:00:10.535Z,8.79
2023-10-21T08:02:37.848Z,8.95
2023-10-21T08:05:05.673Z,9.04
2023-10-21T08:07:32.909Z,9.15
2023-10-21T08:10:00.176Z,9.33
2023-10-21T08:12:27.475Z,9.20
2023-10-21T08:14:56.120Z,9.18
2023-10-21T08:17:23.385Z,9.27
2023-10-21T08:19:50.611Z,9.24
2023-10-21T08:22:17.822Z,9.48
2023-10-21T08:24:45.116Z,9.63
2023-10-21T08:27:12.776Z,9.76
2023-10-21T08:29:40.033Z,10.04
2023-10-21T08:32:08.788Z,10.18
2023-10-21T08:34:36.208Z,10.07
2023-10-21T08:37:04.178Z,10.17
2023-10-21T08:39:31.765Z,10.14
2023-10-21T08:42:00.712Z,10.12
2023-10-21T08:44:31.034Z,10.10
2023-10-21T08:46:59.450Z,9.94
2023-10-21T08:49:28.140Z,9.97
2023-10-21T08:51:57.470Z,9.98
2023-10-21T08:54:25.332Z,9.92
2023-10-21T08:56:52.622Z,10.10
2023-10-21T08:59:19.847Z,10.32
2023-10-21T09:01:49.146Z,10.28
2023-10-21T09:04:19.677Z,10.34
2023-10-21T09:06:58.077Z,10.68
2023-10-21T09:09:26.277Z,10.93
2023-10-21T09:12:07.108Z,11.22
2023-10-21T09:14:50.880Z,11.39
2023-10-21T09:17:18.293Z,11.46
2023-10-21T09:19:49.332Z,11.55
2023-10-21T09:22:24.947Z,11.66
2023-10-21T09:25:08.103Z,11.78
2023-10-21T09:27:35.492Z,12.09
2023-10-21T09:30:02.852Z,12.28
2023-10-21T09:32:30.320Z,12.15
2023-10-21T09:35:13.933Z,12.12
2023-10-21T09:37:42.789Z,12.02
2023-10-21T09:40:10.505Z,12.08
2023-10-21T09:42:38.996Z,12.32
2023-10-21T09:45:08.630Z,12.43
2023-10-21T09:47:39.333Z,12.46
2023-10-21T09:50:08.556Z,12.48
2023-10-21T09:52:41.903Z,12.46
2023-10-21T09:55:11.607Z,12.41
2023-10-21T09:57:39.617Z,12.42
2023-10-21T10:00:07.696Z,12.47
2023-10-21T10:02:35.677Z,12.56
2023-10-21T10:05:06.855Z,12.74
2023-10-21T10:07:41.058Z,12.85
2023-10-21T10:10:12.941Z,13.00
2023-10-21T10:12:44.755Z,13.32
2023-10-21T10:15:28.931Z,13.68
2023-10-21T10:17:56.542Z,13.99
2023-10-21T10:20:24.936Z,14.41
2023-10-21T10:23:03.669Z,14.72
2023-10-21T10:25:33.543Z,15.14
2023-10-21T10:28:04.408Z,15.45
2023-10-21T10:30:33.302Z,15.55
2023-10-21T10:33:05.959Z,15.80
2023-10-21T10:35:35.188Z,15.97
2023-10-21T10:38:02.660Z,16.22
2023-10-21T10:40:35.935Z,16.30
2023-10-21T10:43:03.508Z,16.78
2023-10-21T10:45:32.370Z,17.83
2023-10-21T10:48:01.093Z,17.96
2023-10-21T10:50:28.470Z,17.29
2023-10-21T10:52:56.019Z,16.72
2023-10-21T10:55:24.005Z,16.44
2023-10-21T10:57:52.905Z,16.21
2023-10-21T11:00:20.305Z,16.12
2023-10-21T11:02:47.823Z,16.22
2023-10-21T11:05:18.684Z,16.42
2023-10-21T11:07:45.957Z,16.65
2023-10-21T11:10:13.354Z,16.82
2023-10-21T11:12:40.670Z,16.83
2023-10-21T11:15:10.013Z,16.94
2023-10-21T11:17:37.415Z,17.06
2023-10-21T11:20:05.589Z,16.99
2023-10-21T11:22:32.807Z,17.16
2023-10-21T11:25:00.213Z,17.17
2023-10-21T11:27:28.512Z,17.27
2023-10-21T11:29:56.355Z,17.24
2023-10-21T11:32:28.820Z,17.36
2023-10-21T11:34:56.459Z,17.44
2023-10-21T11:37:24.736Z,17.54
2023-10-21T11:39:52.771Z,17.59
2023-10-21T11:42:20.068Z,17.65
2023-10-21T11:44:57.712Z,17.68
2023-10-21T11:47:28.724Z,17.71
2023-10-21T11:49:57.138Z,17.63
2023-10-21T11:52:26.223Z,17.80
2023-10-21T11:54:54.584Z,17.77
2023-10-21T11:57:21.886Z,17.86
2023-10-21T11:59:52.078Z,17.81
2023-10-21T12:02:19.447Z,17.97
2023-10-21T12:04:48.085Z,17.95
2023-10-21T12:07:15.450Z,17.89
2023-10-21T12:09:42.850Z,18.01
2023-10-21T12:12:10.308Z,18.22
2023-10-21T12:14:38.602Z,18.50
2023-10-21T12:17:14.695Z,18.58
2023-10-21T12:19:42.341Z,18.60
2023-10-21T12:22:11.169Z,19.04
2023-10-21T12:24:38.702Z,18.99
2023-10-21T12:27:06.010Z,18.75
2023-10-21T12:29:33.849Z,18.34
2023-10-21T12:32:01.159Z,18.33
2023-10-21T12:34:28.457Z,18.42
2023-10-21T12:36:55.731Z,18.29
2023-10-21T12:39:24.419Z,18.27
2023-10-21T12:41:52.953Z,18.21
2023-10-21T12:44:20.429Z,18.04
2023-10-21T12:46:47.845Z,17.88
2023-10-21T12:49:25.956Z,17.89
2023-10-21T12:51:55.496Z,17.99
2023-10-21T12:54:24.226Z,18.10
2023-10-21T12:56:51.569Z,18.12
2023-10-21T12:59:18.957Z,18.06
2023-10-21T13:01:46.345Z,17.93
2023-10-21T13:04:13.871Z,18.01
2023-10-21T13:06:41.369Z,17.98
2023-10-21T13:09:08.802Z,18.14
2023-10-21T13:11:37.433Z,18.06
2023-10-21T13:14:04.751Z,18.05
2023-10-21T13:16:32.032Z,17.95
2023-10-21T13:18:59.337Z,17.91
2023-10-21T13:21:26.646Z,17.85
2023-10-21T13:23:53.931Z,17.84
2023-10-21T13:26:21.221Z,17.84
2023-10-21T13:28:52.366Z,17.86
2023-10-21T13:31:19.803Z,17.85
2023-10-21T13:33:47.164Z,17.91
2023-10-21T13:36:14.487Z,18.10
2023-10-21T13:38:41.723Z,18.35
2023-10-21T13:41:09.337Z,19.08
2023-10-21T13:43:36.545Z,20.27
2023-10-21T13:46:05.607Z,20.00
2023-10-21T13:48:33.052Z,19.30
2023-10-21T13:51:00.478Z,18.92
2023-10-21T13:53:28.482Z,18.74
2023-10-21T13:55:55.948Z,18.67
2023-10-21T13:58:23.190Z,18.57
2023-10-21T14:15:34.745Z,18.39
2023-10-21T14:18:02.094Z,18.45
2023-10-21T14:20:30.798Z,18.37
2023-10-21T14:22:58.054Z,18.45
2023-10-21T14:25:25.325Z,18.24
2023-10-21T14:27:52.528Z,17.98
2023-10-21T14:30:19.782Z,17.85
2023-10-21T14:32:47.191Z,17.68
2023-10-21T14:35:14.445Z,17.56
2023-10-21T14:37:43.203Z,17.47
2023-10-21T14:40:11.057Z,17.36
2023-10-21T14:42:38.393Z,17.25
2023-10-21T14:45:07.296Z,17.18
2023-10-21T14:47:35.039Z,17.16
2023-10-21T14:50:02.338Z,17.11
2023-10-21T14:52:29.792Z,17.16
2023-10-21T14:54:58.588Z,17.10
2023-10-21T14:57:26.097Z,17.19
2023-10-21T14:59:53.867Z,17.01
2023-10-21T15:02:21.162Z,16.91
2023-10-21T15:04:48.519Z,16.89
2023-10-21T15:07:16.262Z,16.93
2023-10-21T15:09:44.121Z,16.83
2023-10-21T15:12:12.844Z,16.68
2023-10-21T15:14:48.581Z,16.65
2023-10-21T15:17:22.940Z,16.55
2023-10-21T15:19:50.291Z,16.47
2023-10-21T15:22:17.556Z,16.37
2023-10-21T15:24:44.832Z,16.33
2023-10-21T15:27:13.606Z,16.23
2023-10-21T15:29:40.982Z,16.16
2023-10-21T15:32:08.602Z,16.04
2023-10-21T15:34:36.339Z,15.93
2023-10-21T15:37:03.720Z,15.85
2023-10-21T15:39:30.915Z,15.79
2023-10-21T15:41:58.333Z,15.70
2023-10-21T15:44:27.034Z,15.66
2023-10-21T15:46:54.289Z,15.53
2023-10-21T15:49:21.654Z,15.38
2023-10-21T15:51:48.976Z,15.27
2023-10-21T15:54:16.269Z,15.16
2023-10-21T15:56:43.586Z,15.03
2023-10-21T15:59:10.772Z,14.90
2023-10-21T16:01:39.909Z,14.80
2023-10-21T16:04:07.490Z,14.67
2023-10-21T16:06:34.995Z,14.55
2023-10-21T16:09:02.271Z,14.42
2023-10-21T16:11:29.699Z,14.27
2023-10-21T16:13:56.997Z,14.18
2023-10-21T16:16:24.492Z,14.01
2023-10-21T16:18:53.294Z,13.87
2023-10-21T16:21:20.638Z,13.72
2023-10-21T16:23:47.964Z,13.59
2023-10-21T16:26:15.322Z,13.48
2023-10-21T16:28:42.633Z,13.32
2023-10-21T16:31:09.974Z,13.25
2023-10-21T16:33:37.430Z,13.11
2023-10-21T16:36:06.611Z,13.03
2023-10-21T16:38:34.055Z,12.94
2023-10-21T16:41:01.434Z,12.85
2023-10-21T16:43:28.681Z,12.76
2023-10-21T16:45:56.000Z,12.77
2023-10-21T16:48:23.413Z,12.80
2023-10-21T16:50:50.728Z,12.77
2023-10-21T16:53:19.378Z,12.63
2023-10-21T16:55:46.650Z,12.39
2023-10-21T16:58:14.027Z,12.27
2023-10-21T17:00:41.474Z,12.25
2023-10-21T17:03:08.906Z,12.31
2023-10-21T17:05:36.321Z,12.18
2023-10-21T17:08:04.480Z,12.03
2023-10-21T17:10:33.115Z,11.93
2023-10-21T17:13:00.383Z,11.77
2023-10-21T17:15:27.769Z,11.65
2023-10-21T17:17:55.880Z,11.63
2023-10-21T17:20:23.145Z,11.69
2023-10-21T17:22:50.410Z,11.64
2023-10-21T17:25:17.885Z,11.55
2023-10-21T17:27:47.096Z,11.50
2023-10-21T17:30:14.910Z,11.42
2023-10-21T17:32:42.307Z,11.33
2023-10-21T17:35:09.696Z,11.19
2023-10-21T17:41:25.460Z,10.99
2023-10-21T17:43:54.280Z,10.93
2023-10-21T17:46:22.032Z,11.00
2023-10-21T17:48:49.453Z,11.05
2023-10-21T17:51:19.405Z,11.08
2023-10-21T17:53:47.312Z,11.02
2023-10-21T17:56:15.009Z,10.96
2023-10-21T17:58:42.524Z,11.01
2023-10-21T18:01:11.636Z,10.71
2023-10-21T18:03:39.353Z,10.58
2023-10-21T18:06:07.900Z,10.42
2023-10-21T18:08:35.401Z,10.44
2023-10-21T18:11:03.279Z,10.43
2023-10-21T18:13:30.754Z,10.41
2023-10-21T18:15:58.190Z,10.60
2023-10-21T18:18:27.431Z,10.56
2023-10-21T18:20:54.846Z,10.48
2023-10-21T18:23:23.059Z,10.37
2023-10-21T18:25:57.375Z,10.25
2023-10-21T18:28:24.662Z,10.19
2023-10-21T18:30:53.010Z,10.44
2023-10-21T18:33:20.542Z,10.35
2023-10-21T18:35:50.627Z,10.32
2023-10-21T18:38:18.269Z,10.45
2023-10-21T18:40:45.727Z,10.47
2023-10-21T18:43:13.311Z,10.32
2023-10-21T18:45:40.845Z,10.28
2023-10-21T18:48:08.858Z,10.24
2023-10-21T18:50:36.560Z,10.20
2023-10-21T18:53:06.222Z,10.28
2023-10-21T18:55:34.043Z,10.24
2023-10-21T18:58:01.465Z,10.19
2023-10-21T19:00:28.812Z,10.17
2023-10-21T19:02:56.141Z,10.25
2023-10-21T19:05:23.494Z,10.28
2023-10-21T19:07:50.953Z,10.36
2023-10-21T19:10:19.780Z,10.29
2023-10-21T19:12:49.121Z,10.18
2023-10-21T19:15:18.377Z,10.45
2023-10-21T19:17:46.270Z,10.35
2023-10-21T19:20:13.887Z,10.20
2023-10-21T19:22:41.322Z,10.18
2023-10-21T19:25:09.532Z,10.16
2023-10-21T19:27:38.284Z,10.14
2023-10-21T19:30:06.840Z,10.25
2023-10-21T19:32:34.189Z,10.31
2023-10-21T19:35:01.786Z,10.31
2023-10-21T19:37:29.211Z,10.22
2023-10-21T19:39:56.620Z,10.18
2023-10-21T19:42:24.178Z,10.18
2023-10-21T19:44:53.818Z,10.14
2023-10-21T19:47:21.243Z,10.17
2023-10-21T19:49:48.572Z,10.11
2023-10-21T19:52:15.815Z,10.10
2023-10-21T19:54:43.205Z,10.15
2023-10-21T19:57:10.602Z,10.09
2023-10-21T19:59:38.118Z,10.03
2023-10-21T20:02:07.123Z,10.00
2023-10-21T20:04:34.508Z,10.10
2023-10-21T20:07:02.303Z,10.23
2023-10-21T20:09:29.648Z,10.21
2023-10-21T20:11:57.045Z,10.22
2023-10-21T20:14:24.501Z,10.08
2023-10-21T20:16:51.923Z,9.96
2023-10-21T20:19:20.899Z,9.92
2023-10-21T20:21:48.330Z,9.82
2023-10-21T20:24:15.820Z,9.87
2023-10-21T20:26:43.100Z,9.93
2023-10-21T20:29:10.347Z,9.91
2023-10-21T20:31:37.792Z,9.77
2023-10-21T20:34:05.293Z,9.73
2023-10-21T20:36:34.039Z,9.71
2023-10-21T20:39:01.550Z,9.58
2023-10-21T20:41:28.896Z,9.57
2023-10-21T20:43:56.201Z,9.57
2023-10-21T20:46:23.684Z,9.68
2023-10-21T20:48:51.069Z,9.70
2023-10-21T20:51:18.724Z,9.57
2023-10-21T20:53:48.312Z,9.48
2023-10-21T20:56:19.836Z,9.41
2023-10-21T20:58:47.665Z,9.43
2023-10-21T21:01:19.866Z,9.62
2023-10-21T21:03:54.184Z,9.50
2023-10-21T21:06:21.639Z,9.68
2023-10-21T21:08:50.464Z,9.73
2023-10-21T21:11:18.157Z,9.59
2023-10-21T21:13:45.483Z,9.53
2023-10-21T21:16:12.828Z,9.70
2023-10-21T21:18:40.457Z,9.49
2023-10-21T21:21:07.986Z,9.36
2023-10-21T21:23:35.287Z,9.25
2023-10-21T21:26:05.571Z,9.22
2023-10-21T21:28:33.100Z,9.27
2023-10-21T21:31:00.605Z,9.38
2023-10-21T21:33:28.060Z,9.44
2023-10-21T21:35:59.217Z,9.32
2023-10-21T21:38:27.909Z,9.39
2023-10-21T21:40:55.378Z,9.32
2023-10-21T21:43:24.323Z,9.27
2023-10-21T21:45:51.864Z,9.26
2023-10-21T21:48:19.345Z,9.31
2023-10-21T21:50:46.699Z,9.30
2023-10-21T21:53:14.015Z,9.34
2023-10-21T21:55:41.298Z,9.48
2023-10-21T21:58:08.670Z,9.56
2023-10-21T22:00:37.384Z,9.53
2023-10-21T22:03:05.155Z,9.57
2023-10-21T22:05:32.541Z,9.50
2023-10-21T22:08:00.162Z,9.51
2023-10-21T22:10:27.456Z,9.56
2023-10-21T22:12:54.847Z,9.67
2023-10-21T22:15:22.170Z,9.67
2023-10-21T22:17:51.247Z,9.79
2023-10-21T22:20:18.741Z,9.77
2023-10-21T22:22:46.988Z,9.68
2023-10-21T22:25:14.043Z,9.67
2023-10-21T22:27:41.301Z,9.69
2023-10-21T22:30:09.256Z,9.75
2023-10-21T22:32:36.611Z,9.84
2023-10-21T22:35:05.960Z,9.83
2023-10-21T22:37:33.291Z,9.74
2023-10-21T22:40:00.608Z,9.70
2023-10-21T22:42:27.911Z,9.79
2023-10-21T22:44:56.370Z,9.79
2023-10-21T22:47:23.729Z,9.92
2023-10-21T22:49:51.113Z,9.86
2023-10-21T22:52:19.865Z,9.80
2023-10-21T22:54:47.352Z,9.80
2023-10-21T22:57:14.692Z,9.81
2023-10-21T22:59:42.110Z,9.88
2023-10-21T23:02:09.367Z,9.90
2023-10-21T23:04:36.857Z,10.03
2023-10-21T23:07:04.824Z,9.99
2023-10-21T23:09:33.495Z,9.95
2023-10-21T23:12:00.855Z,9.95
2023-10-21T23:14:28.681Z,10.02
2023-10-21T23:16:55.986Z,10.15
2023-10-21T23:19:23.299Z,10.06
2023-10-21T23:21:50.609Z,10.04
2023-10-21T23:24:17.887Z,10.10
2023-10-21T23:26:46.565Z,10.15
2023-10-21T23:29:13.893Z,10.51
2023-10-21T23:31:41.253Z,10.48
2023-10-21T23:34:08.687Z,10.29
2023-10-21T23:36:36.056Z,10.22
2023-10-21T23:39:03.584Z,10.17
2023-10-21T23:41:31.025Z,10.14
2023-10-21T23:43:59.769Z,10.27
2023-10-21T23:46:27.032Z,10.22
2023-10-21T23:48:54.427Z,10.17
2023-10-21T23:51:22.430Z,10.14
2023-10-21T23:53:49.828Z,10.15
2023-10-21T23:56:17.154Z,10.15
2023-10-21T23:58:44.496Z,10.23
